createdAt,value
2022-08-19T00:00:23.714Z,5.80
2022-08-19T00:01:29.157Z,6.07
2022-08-19T00:02:32.563Z,5.43
2022-08-19T00:03:36.599Z,6.25
2022-08-19T00:04:38.669Z,5.47
2022-08-19T00:05:43.619Z,5.60
2022-08-19T00:06:47.304Z,5.60
2022-08-19T00:07:50.974Z,5.70
2022-08-19T00:08:54.698Z,5.63
2022-08-19T00:09:57.868Z,6.35
2022-08-19T00:11:00.000Z,6.38
2022-08-19T00:12:03.195Z,6.40
2022-08-19T00:13:05.292Z,5.55
2022-08-19T00:14:10.604Z,5.05
2022-08-19T00:15:15.261Z,5.55
2022-08-19T00:16:19.302Z,6.38
2022-08-19T00:17:27.547Z,5.30
2022-08-19T00:18:30.642Z,6.28
2022-08-19T00:19:32.985Z,6.88
2022-08-19T00:20:36.038Z,6.13
2022-08-19T00:21:40.805Z,5.80
2022-08-19T00:22:44.765Z,5.90
2022-08-19T00:23:47.165Z,5.60
2022-08-19T00:24:52.026Z,5.75
2022-08-19T00:25:54.336Z,5.60
2022-08-19T00:26:58.408Z,5.75
2022-08-19T00:28:22.085Z,6.30
2022-08-19T00:29:25.311Z,5.30
2022-08-19T00:30:29.506Z,6.47
2022-08-19T00:31:32.790Z,6.30
2022-08-19T00:32:36.276Z,6.20
2022-08-19T00:33:38.983Z,5.93
2022-08-19T00:34:42.193Z,7.43
2022-08-19T00:35:44.383Z,5.55
2022-08-19T00:36:48.211Z,6.15
2022-08-19T00:37:51.593Z,6.30
2022-08-19T00:38:53.878Z,5.90
2022-08-19T00:39:58.500Z,5.90
2022-08-19T00:41:00.705Z,5.88
2022-08-19T00:42:03.868Z,6.78
2022-08-19T00:43:10.122Z,6.22
2022-08-19T00:44:15.680Z,6.82
2022-08-19T00:45:26.335Z,6.07
2022-08-19T00:46:29.426Z,6.07
2022-08-19T00:47:32.744Z,7.85
2022-08-19T00:48:35.345Z,6.15
2022-08-19T00:49:43.646Z,7.50
2022-08-19T00:50:51.643Z,6.57
2022-08-19T00:52:01.475Z,7.25
2022-08-19T00:53:04.683Z,6.65
2022-08-19T00:54:07.871Z,7.80
2022-08-19T00:55:13.590Z,7.35
2022-08-19T00:56:18.169Z,6.47
2022-08-19T00:57:27.461Z,6.78
2022-08-19T00:58:33.406Z,6.85
2022-08-19T01:00:01.210Z,7.00
2022-08-19T01:01:02.794Z,7.22
2022-08-19T01:02:05.575Z,6.80
2022-08-19T01:03:11.489Z,6.82
2022-08-19T01:04:13.728Z,6.70
2022-08-19T01:05:21.666Z,7.20
2022-08-19T01:06:23.903Z,6.90
2022-08-19T01:07:27.597Z,7.95
2022-08-19T01:08:29.653Z,8.02
2022-08-19T01:09:33.518Z,7.90
2022-08-19T01:10:40.363Z,8.32
2022-08-19T01:11:46.441Z,7.18
2022-08-19T01:12:49.862Z,8.20
2022-08-19T01:13:54.935Z,8.43
2022-08-19T01:14:57.701Z,7.20
2022-08-19T01:16:05.650Z,8.70
2022-08-19T01:17:09.490Z,8.55
2022-08-19T01:18:15.741Z,8.40
2022-08-19T01:19:25.891Z,8.85
2022-08-19T01:20:29.220Z,8.68
2022-08-19T01:21:35.452Z,9.00
2022-08-19T01:22:44.189Z,9.30
2022-08-19T01:23:46.817Z,8.95
2022-08-19T01:24:50.149Z,9.70
2022-08-19T01:25:55.387Z,9.40
2022-08-19T01:26:59.186Z,9.70
2022-08-19T01:28:01.700Z,8.60
2022-08-19T01:29:14.833Z,9.23
2022-08-19T01:30:20.301Z,10.05
2022-08-19T01:31:27.178Z,7.82
2022-08-19T01:32:33.794Z,8.80
2022-08-19T01:33:37.410Z,8.75
2022-08-19T01:34:39.909Z,9.60
2022-08-19T01:35:44.043Z,8.18
2022-08-19T01:36:48.205Z,8.50
2022-08-19T01:37:55.197Z,8.18
2022-08-19T01:38:59.091Z,7.07
2022-08-19T01:40:06.324Z,7.82
2022-08-19T01:41:11.994Z,8.93
2022-08-19T01:42:15.009Z,8.85
2022-08-19T01:43:17.279Z,7.97
2022-08-19T01:44:21.452Z,9.10
2022-08-19T01:45:26.443Z,9.18
2022-08-19T01:46:29.514Z,8.82
2022-08-19T01:47:31.719Z,8.85
2022-08-19T01:48:40.161Z,8.50
2022-08-19T01:49:42.236Z,9.48
2022-08-19T01:50:45.671Z,8.80
2022-08-19T01:51:48.605Z,7.35
2022-08-19T01:53:01.272Z,8.15
2022-08-19T01:54:07.041Z,8.50
2022-08-19T01:55:13.186Z,7.85
2022-08-19T01:56:16.479Z,7.25
2022-08-19T01:57:18.575Z,8.93
2022-08-19T01:58:26.388Z,8.45
2022-08-19T01:59:29.400Z,7.32
2022-08-19T02:00:34.021Z,7.20
2022-08-19T02:01:36.258Z,7.55
2022-08-19T02:02:39.336Z,7.80
2022-08-19T02:03:42.416Z,7.55
2022-08-19T02:04:46.747Z,7.20
2022-08-19T02:05:49.511Z,7.53
2022-08-19T02:06:52.746Z,7.30
2022-08-19T02:07:56.429Z,7.50
2022-08-19T02:08:59.650Z,7.22
2022-08-19T02:10:04.629Z,6.57
2022-08-19T02:11:21.746Z,6.40
2022-08-19T02:12:23.962Z,6.97
2022-08-19T02:13:28.174Z,7.85
2022-08-19T02:14:30.226Z,8.45
2022-08-19T02:15:33.417Z,8.88
2022-08-19T02:16:36.537Z,7.72
2022-08-19T02:17:41.077Z,7.25
2022-08-19T02:18:43.106Z,7.53
2022-08-19T02:19:46.181Z,8.00
2022-08-19T02:20:48.505Z,7.60
2022-08-19T02:21:52.162Z,7.40
2022-08-19T02:22:55.678Z,7.10
2022-08-19T02:24:07.750Z,7.95
2022-08-19T02:25:46.478Z,6.80
2022-08-19T02:26:59.366Z,6.95
2022-08-19T02:28:22.524Z,7.32
2022-08-19T02:31:50.981Z,7.60
2022-08-19T02:33:16.623Z,6.78
2022-08-19T02:34:41.497Z,7.43
2022-08-19T02:35:59.085Z,7.10
2022-08-19T02:37:36.678Z,7.03
2022-08-19T02:39:28.578Z,6.72
2022-08-19T02:40:56.701Z,7.47
2022-08-19T02:42:37.182Z,5.95
2022-08-19T02:44:18.457Z,6.30
2022-08-19T02:45:21.282Z,6.35
2022-08-19T02:47:13.719Z,6.60
2022-08-19T02:50:35.765Z,6.70
2022-08-19T02:52:07.899Z,6.50
2022-08-19T02:53:53.617Z,7.05
2022-08-19T02:55:22.998Z,7.20
2022-08-19T02:57:02.207Z,6.45
2022-08-19T02:58:42.454Z,6.35
2022-08-19T03:03:53.128Z,6.45
2022-08-19T03:05:14.202Z,6.90
2022-08-19T03:08:07.213Z,7.03
2022-08-19T03:09:47.711Z,6.55
2022-08-19T03:11:35.473Z,7.65
2022-08-19T03:14:40.766Z,5.70
2022-08-19T03:15:48.049Z,6.40
2022-08-19T03:17:32.416Z,5.60
2022-08-19T03:21:02.279Z,6.57
2022-08-19T03:22:52.709Z,5.88
2022-08-19T03:24:16.583Z,7.60
2022-08-19T03:25:45.588Z,6.68
2022-08-19T03:27:02.860Z,6.90
2022-08-19T03:28:29.410Z,5.70
2022-08-19T03:30:06.965Z,7.00
2022-08-19T03:31:44.116Z,6.90
2022-08-19T03:35:13.423Z,6.00
2022-08-19T03:38:13.329Z,6.72
2022-08-19T03:39:25.000Z,7.20
2022-08-19T03:40:51.268Z,7.20
2022-08-19T03:42:32.927Z,6.80
2022-08-19T03:43:29.485Z,6.80
2022-08-19T03:44:33.263Z,6.35
2022-08-19T03:45:36.321Z,6.47
2022-08-19T03:46:38.354Z,6.97
2022-08-19T03:47:46.388Z,7.15
2022-08-19T03:48:49.753Z,7.03
2022-08-19T03:49:52.870Z,6.82
2022-08-19T03:50:54.914Z,7.10
2022-08-19T03:52:01.218Z,6.57
2022-08-19T03:53:03.279Z,7.10
2022-08-19T03:54:09.733Z,6.97
2022-08-19T03:55:12.289Z,7.65
2022-08-19T03:56:15.733Z,6.50
2022-08-19T03:57:20.133Z,5.95
2022-08-19T03:58:22.596Z,7.60
2022-08-19T03:59:27.761Z,7.72
2022-08-19T04:00:30.805Z,7.60
2022-08-19T04:01:34.937Z,6.65
2022-08-19T04:02:38.752Z,6.80
2022-08-19T04:03:41.173Z,7.43
2022-08-19T04:04:45.992Z,6.47
2022-08-19T04:05:48.670Z,6.45
2022-08-19T04:06:52.337Z,6.47
2022-08-19T04:07:54.434Z,6.40
2022-08-19T04:08:58.858Z,5.68
2022-08-19T04:10:02.206Z,5.35
2022-08-19T04:11:08.802Z,6.78
2022-08-19T04:12:11.866Z,7.32
2022-08-19T04:13:15.514Z,6.22
2022-08-19T04:14:21.863Z,7.60
2022-08-19T04:15:23.885Z,6.70
2022-08-19T04:16:35.271Z,6.15
2022-08-19T04:17:38.448Z,5.20
2022-08-19T04:18:41.714Z,5.82
2022-08-19T04:19:45.159Z,6.20
2022-08-19T04:20:49.672Z,5.38
2022-08-19T04:21:55.728Z,4.95
2022-08-19T04:22:58.425Z,5.88
2022-08-19T04:24:01.930Z,7.40
2022-08-19T04:25:07.663Z,6.28
2022-08-19T04:26:15.055Z,6.22
2022-08-19T04:27:18.242Z,6.43
2022-08-19T04:28:22.071Z,6.15
2022-08-19T04:29:27.863Z,6.85
2022-08-19T04:30:29.983Z,6.65
2022-08-19T04:31:36.615Z,6.60
2022-08-19T04:32:38.650Z,7.18
2022-08-19T04:33:41.762Z,7.13
2022-08-19T04:35:01.336Z,6.70
2022-08-19T04:36:06.379Z,6.35
2022-08-19T04:37:12.619Z,6.90
2022-08-19T04:38:16.591Z,7.25
2022-08-19T04:39:22.254Z,6.95
2022-08-19T04:40:43.096Z,8.00
2022-08-19T04:42:04.380Z,7.05
2022-08-19T04:43:07.441Z,5.65
2022-08-19T04:44:11.420Z,7.30
2022-08-19T04:45:17.336Z,7.53
2022-08-19T04:46:39.492Z,7.20
2022-08-19T04:47:48.038Z,7.78
2022-08-19T04:49:13.176Z,6.45
2022-08-19T04:50:17.333Z,6.78
2022-08-19T04:51:21.610Z,6.72
2022-08-19T04:52:24.663Z,7.25
2022-08-19T04:53:29.923Z,6.80
2022-08-19T04:54:40.091Z,7.70
2022-08-19T04:55:44.484Z,8.93
2022-08-19T04:56:46.613Z,7.47
2022-08-19T04:57:49.858Z,8.25
2022-08-19T04:58:52.422Z,8.07
2022-08-19T05:00:00.881Z,7.20
2022-08-19T05:01:03.118Z,6.22
2022-08-19T05:02:08.599Z,6.90
2022-08-19T05:03:11.330Z,5.80
2022-08-19T05:04:14.429Z,6.05
2022-08-19T05:05:16.872Z,6.53
2022-08-19T05:06:22.034Z,5.85
2022-08-19T05:07:24.146Z,5.88
2022-08-19T05:08:31.331Z,5.40
2022-08-19T05:09:58.304Z,5.72
2022-08-19T05:10:58.240Z,4.82
2022-08-19T05:12:01.262Z,5.35
2022-08-19T05:13:04.378Z,6.03
2022-08-19T05:14:09.153Z,5.43
2022-08-19T05:15:12.765Z,5.38
2022-08-19T05:16:17.365Z,5.22
2022-08-19T05:17:28.483Z,5.95
2022-08-19T05:18:50.820Z,6.15
2022-08-19T05:20:11.622Z,6.15
2022-08-19T05:21:37.689Z,6.05
2022-08-19T05:22:40.921Z,5.28
2022-08-19T05:23:43.013Z,5.78
2022-08-19T05:25:09.306Z,6.38
2022-08-19T05:26:10.347Z,6.20
2022-08-19T05:27:12.635Z,5.38
2022-08-19T05:28:15.722Z,6.20
2022-08-19T05:29:21.006Z,6.70
2022-08-19T05:30:46.067Z,6.55
2022-08-19T05:31:50.406Z,5.40
2022-08-19T05:32:54.036Z,6.05
2022-08-19T05:33:59.213Z,5.70
2022-08-19T05:35:02.289Z,5.32
2022-08-19T05:36:05.486Z,6.22
2022-08-19T05:37:09.774Z,5.50
2022-08-19T05:38:13.639Z,5.65
2022-08-19T05:39:19.064Z,5.00
2022-08-19T05:40:22.174Z,5.30
2022-08-19T05:41:31.287Z,5.95
2022-08-19T05:42:34.286Z,5.10
2022-08-19T05:43:36.781Z,6.53
2022-08-19T05:44:44.957Z,6.90
2022-08-19T05:45:48.583Z,7.18
2022-08-19T05:46:53.714Z,5.63
2022-08-19T05:47:55.968Z,6.57
2022-08-19T05:48:59.377Z,7.57
2022-08-19T05:50:02.919Z,7.03
2022-08-19T05:51:09.174Z,7.47
2022-08-19T05:52:13.129Z,6.75
2022-08-19T05:53:17.269Z,7.15
2022-08-19T05:54:20.006Z,5.95
2022-08-19T05:55:24.687Z,6.78
2022-08-19T05:56:26.950Z,7.30
2022-08-19T05:57:30.714Z,6.60
2022-08-19T05:58:33.473Z,7.70
2022-08-19T05:59:37.328Z,7.80
2022-08-19T06:00:43.738Z,6.65
2022-08-19T06:01:52.312Z,7.40
2022-08-19T06:02:56.895Z,7.03
2022-08-19T06:04:00.721Z,7.75
2022-08-19T06:05:04.221Z,7.32
2022-08-19T06:06:08.861Z,7.30
2022-08-19T06:07:12.780Z,6.80
2022-08-19T06:08:16.339Z,8.80
2022-08-19T06:09:18.761Z,7.70
2022-08-19T06:10:22.625Z,9.60
2022-08-19T06:11:33.493Z,7.78
2022-08-19T06:12:37.587Z,8.70
2022-08-19T06:13:39.634Z,7.70
2022-08-19T06:14:42.994Z,8.48
2022-08-19T06:15:45.387Z,7.43
2022-08-19T06:16:49.901Z,8.02
2022-08-19T06:17:52.101Z,7.47
2022-08-19T06:18:56.007Z,8.15
2022-08-19T06:19:59.356Z,9.80
2022-08-19T06:21:04.936Z,8.63
2022-08-19T06:22:08.237Z,8.18
2022-08-19T06:23:10.527Z,7.68
2022-08-19T06:24:22.342Z,8.27
2022-08-19T06:25:27.824Z,9.32
2022-08-19T06:26:35.451Z,8.70
2022-08-19T06:27:48.296Z,7.32
2022-08-19T06:28:55.597Z,8.70
2022-08-19T06:29:58.633Z,8.70
2022-08-19T06:31:07.006Z,8.20
2022-08-19T06:32:12.098Z,10.70
2022-08-19T06:33:14.180Z,8.70
2022-08-19T06:34:18.665Z,7.80
2022-08-19T06:35:21.050Z,7.63
2022-08-19T06:36:28.162Z,8.40
2022-08-19T06:37:31.202Z,9.60
2022-08-19T06:38:34.339Z,9.40
2022-08-19T06:39:45.797Z,9.05
2022-08-19T06:40:47.887Z,9.25
2022-08-19T06:41:55.577Z,10.30
2022-08-19T06:43:03.049Z,9.27
2022-08-19T06:44:09.374Z,10.63
2022-08-19T06:45:16.497Z,10.35
2022-08-19T06:46:20.613Z,9.73
2022-08-19T06:47:29.058Z,10.80
2022-08-19T06:48:31.564Z,9.35
2022-08-19T06:49:37.198Z,9.55
2022-08-19T06:50:39.703Z,9.00
2022-08-19T06:51:45.198Z,9.82
2022-08-19T06:52:48.737Z,12.13
2022-08-19T06:53:57.478Z,10.88
2022-08-19T06:55:00.972Z,14.57
2022-08-19T06:56:03.701Z,12.38
2022-08-19T06:57:07.645Z,10.15
2022-08-19T06:58:10.317Z,12.85
2022-08-19T06:59:15.225Z,11.70
2022-08-19T07:00:17.475Z,12.27
2022-08-19T07:01:24.094Z,13.43
2022-08-19T07:02:27.687Z,15.45
2022-08-19T07:03:33.285Z,13.70
2022-08-19T07:04:42.088Z,13.48
2022-08-19T07:05:46.351Z,15.00
2022-08-19T07:06:54.958Z,12.80
2022-08-19T07:08:01.618Z,11.63
2022-08-19T07:09:09.938Z,13.50
2022-08-19T07:10:12.493Z,11.40
2022-08-19T07:11:18.433Z,12.70
2022-08-19T07:12:20.582Z,11.23
2022-08-19T07:13:25.950Z,12.05
2022-08-19T07:14:29.818Z,10.40
2022-08-19T07:15:31.909Z,10.43
2022-08-19T07:16:35.029Z,11.25
2022-08-19T07:17:40.194Z,14.55
2022-08-19T07:18:45.580Z,13.70
2022-08-19T07:19:51.185Z,14.15
2022-08-19T07:21:04.775Z,12.25
2022-08-19T07:22:17.328Z,15.48
2022-08-19T07:23:19.770Z,15.38
2022-08-19T07:24:25.433Z,15.95
2022-08-19T07:25:32.108Z,16.05
2022-08-19T07:26:43.872Z,17.33
2022-08-19T07:27:46.255Z,13.93
2022-08-19T07:28:52.931Z,16.55
2022-08-19T07:29:57.603Z,17.70
2022-08-19T07:31:02.804Z,17.13
2022-08-19T07:32:06.570Z,16.52
2022-08-19T07:33:15.150Z,16.25
2022-08-19T07:34:18.510Z,17.33
2022-08-19T07:35:21.438Z,17.10
2022-08-19T07:36:26.445Z,17.98
2022-08-19T07:37:33.510Z,17.75
2022-08-19T07:38:35.826Z,15.25
2022-08-19T07:39:39.554Z,15.98
2022-08-19T07:40:42.187Z,14.02
2022-08-19T07:41:46.060Z,15.20
2022-08-19T07:42:49.730Z,13.75
2022-08-19T07:43:52.959Z,14.55
2022-08-19T07:44:56.057Z,12.00
2022-08-19T07:45:58.272Z,12.57
2022-08-19T07:47:03.131Z,14.77
2022-08-19T07:48:07.134Z,12.50
2022-08-19T07:49:20.176Z,12.80
2022-08-19T07:50:22.790Z,16.02
2022-08-19T07:51:28.698Z,16.00
2022-08-19T07:52:40.512Z,17.38
2022-08-19T07:53:45.905Z,18.05
2022-08-19T07:54:48.211Z,16.75
2022-08-19T07:55:52.438Z,16.92
2022-08-19T07:56:55.016Z,14.02
2022-08-19T07:57:58.393Z,14.05
2022-08-19T07:59:01.706Z,16.90
2022-08-19T08:00:07.551Z,18.00
2022-08-19T08:01:18.611Z,18.85
2022-08-19T08:02:21.768Z,15.10
2022-08-19T08:03:44.515Z,14.73
2022-08-19T08:05:06.689Z,14.85
2022-08-19T08:06:27.757Z,16.15
2022-08-19T08:07:49.103Z,14.57
2022-08-19T08:09:10.125Z,14.23
2022-08-19T08:10:20.642Z,16.45
2022-08-19T08:11:24.045Z,15.60
2022-08-19T08:12:34.737Z,15.88
2022-08-19T08:13:39.064Z,14.05
2022-08-19T08:14:44.782Z,16.77
2022-08-19T08:15:50.812Z,13.23
2022-08-19T08:16:55.425Z,15.52
2022-08-19T08:17:58.744Z,16.52
2022-08-19T08:19:01.393Z,17.85
2022-08-19T08:20:10.762Z,15.43
2022-08-19T08:21:13.225Z,15.57
2022-08-19T08:22:45.670Z,13.70
2022-08-19T08:23:48.497Z,14.98
2022-08-19T08:24:51.618Z,14.10
2022-08-19T08:25:55.590Z,16.30
2022-08-19T08:27:00.846Z,14.65
2022-08-19T08:28:03.518Z,15.00
2022-08-19T08:29:11.493Z,15.30
2022-08-19T08:30:17.055Z,14.20
2022-08-19T08:31:22.147Z,14.20
2022-08-19T08:32:24.372Z,16.17
2022-08-19T08:33:34.807Z,16.27
2022-08-19T08:34:37.957Z,16.88
2022-08-19T08:35:44.146Z,17.92
2022-08-19T08:36:47.050Z,17.55
2022-08-19T08:37:52.853Z,15.95
2022-08-19T08:40:08.999Z,15.20
2022-08-19T08:41:21.322Z,13.55
2022-08-19T08:42:29.417Z,15.88
2022-08-19T08:43:34.730Z,17.73
2022-08-19T08:44:49.135Z,16.83
2022-08-19T08:45:57.329Z,17.63
2022-08-19T08:47:04.134Z,13.93
2022-08-19T08:48:22.462Z,14.23
2022-08-19T08:49:33.217Z,18.08
2022-08-19T08:50:39.749Z,15.10
2022-08-19T08:51:48.553Z,15.55
2022-08-19T08:53:01.559Z,14.27
2022-08-19T08:54:14.501Z,14.77
2022-08-19T08:55:20.451Z,17.08
2022-08-19T08:56:23.975Z,14.52
2022-08-19T08:57:37.617Z,16.30
2022-08-19T08:58:54.400Z,15.35
2022-08-19T09:00:00.330Z,14.90
2022-08-19T09:01:02.554Z,14.60
2022-08-19T09:02:05.977Z,13.70
2022-08-19T09:03:17.284Z,14.70
2022-08-19T09:04:21.101Z,14.43
2022-08-19T09:05:27.469Z,14.60
2022-08-19T09:06:52.702Z,14.02
2022-08-19T09:08:01.509Z,14.20
2022-08-19T09:09:12.170Z,16.45
2022-08-19T09:10:22.742Z,15.27
2022-08-19T09:11:44.513Z,16.48
2022-08-19T09:12:55.702Z,15.65
2022-08-19T09:14:40.647Z,13.93
2022-08-19T09:15:45.492Z,17.58
2022-08-19T09:16:50.514Z,15.63
2022-08-19T09:17:53.691Z,15.70
2022-08-19T09:19:04.143Z,14.75
2022-08-19T09:20:23.071Z,15.55
2022-08-19T09:21:33.223Z,14.68
2022-08-19T09:22:39.944Z,15.00
2022-08-19T09:23:42.164Z,13.82
2022-08-19T09:24:46.090Z,14.20
2022-08-19T09:25:49.624Z,13.25
2022-08-19T09:26:52.994Z,16.10
2022-08-19T09:28:02.950Z,14.45
2022-08-19T09:29:08.815Z,18.23
2022-08-19T09:30:15.812Z,18.65
2022-08-19T09:31:21.145Z,18.42
2022-08-19T09:32:26.172Z,15.15
2022-08-19T09:33:30.227Z,17.63
2022-08-19T09:34:33.252Z,18.05
2022-08-19T09:35:52.942Z,19.30
2022-08-19T09:36:59.085Z,19.48
2022-08-19T09:38:03.826Z,20.60
2022-08-19T09:39:16.309Z,20.15
2022-08-19T09:40:20.389Z,17.67
2022-08-19T09:41:24.339Z,19.00
2022-08-19T09:42:30.350Z,17.65
2022-08-19T09:43:44.619Z,15.63
2022-08-19T09:44:51.054Z,15.00
2022-08-19T09:45:53.859Z,18.52
2022-08-19T09:46:57.152Z,15.18
2022-08-19T09:47:59.271Z,15.57
2022-08-19T09:49:06.425Z,14.35
2022-08-19T09:50:11.813Z,13.25
2022-08-19T09:51:23.293Z,15.55
2022-08-19T09:52:25.516Z,16.58
2022-08-19T09:53:37.374Z,17.02
2022-08-19T09:54:41.180Z,13.80
2022-08-19T09:55:46.782Z,15.05
2022-08-19T09:56:50.009Z,13.23
2022-08-19T09:57:55.124Z,15.65
2022-08-19T09:59:00.528Z,16.23
2022-08-19T10:00:03.797Z,12.52
2022-08-19T10:01:18.628Z,12.93
2022-08-19T10:02:22.330Z,12.02
2022-08-19T10:03:25.615Z,11.95
2022-08-19T10:04:47.306Z,12.38
2022-08-19T10:05:59.146Z,11.57
2022-08-19T10:07:06.119Z,12.15
2022-08-19T10:08:13.002Z,13.00
2022-08-19T10:09:34.008Z,14.10
2022-08-19T10:10:38.071Z,11.70
2022-08-19T10:11:54.569Z,13.27
2022-08-19T10:12:57.221Z,11.43
2022-08-19T10:14:00.584Z,12.85
2022-08-19T10:15:03.333Z,12.75
2022-08-19T10:16:10.823Z,11.10
2022-08-19T10:18:59.020Z,10.63
2022-08-19T10:20:03.456Z,12.57
2022-08-19T10:21:11.653Z,12.25
2022-08-19T10:22:14.733Z,11.18
2022-08-19T10:23:18.874Z,12.35
2022-08-19T10:24:25.105Z,12.80
2022-08-19T10:25:28.199Z,11.13
2022-08-19T10:26:35.613Z,12.10
2022-08-19T10:27:38.809Z,10.75
2022-08-19T10:28:43.265Z,11.75
2022-08-19T10:29:49.480Z,11.90
2022-08-19T10:30:53.307Z,11.52
2022-08-19T10:32:01.192Z,11.10
2022-08-19T10:33:11.055Z,11.65
2022-08-19T10:34:30.037Z,11.50
2022-08-19T10:35:56.266Z,10.85
2022-08-19T10:37:02.069Z,11.00
2022-08-19T10:38:04.637Z,12.07
2022-08-19T10:39:10.205Z,12.98
2022-08-19T10:40:19.461Z,13.40
2022-08-19T10:41:24.233Z,11.68
2022-08-19T10:42:27.485Z,12.73
2022-08-19T10:43:29.605Z,14.27
2022-08-19T10:44:36.404Z,12.00
2022-08-19T10:45:38.852Z,12.18
2022-08-19T10:46:55.882Z,12.43
2022-08-19T10:47:59.802Z,9.93
2022-08-19T10:49:04.957Z,13.52
2022-08-19T10:50:28.708Z,10.43
2022-08-19T10:51:50.940Z,11.07
2022-08-19T10:52:53.139Z,10.93
2022-08-19T10:54:00.767Z,9.88
2022-08-19T10:55:23.178Z,11.77
2022-08-19T10:56:45.463Z,10.60
2022-08-19T10:58:03.640Z,10.20
2022-08-19T10:59:08.146Z,11.90
2022-08-19T11:00:13.037Z,11.02
2022-08-19T11:01:16.621Z,11.25
2022-08-19T11:02:19.217Z,11.27
2022-08-19T11:03:22.972Z,11.25
2022-08-19T11:04:28.794Z,10.40
2022-08-19T11:05:36.486Z,10.52
2022-08-19T11:06:44.430Z,11.52
2022-08-19T11:07:48.508Z,11.40
2022-08-19T11:08:50.814Z,8.95
2022-08-19T11:09:54.127Z,10.95
2022-08-19T11:11:01.550Z,11.30
2022-08-19T11:12:07.081Z,11.10
2022-08-19T11:13:09.443Z,11.18
2022-08-19T11:14:15.665Z,11.32
2022-08-19T11:15:19.279Z,9.73
2022-08-19T11:16:25.700Z,10.20
2022-08-19T11:17:30.343Z,11.00
2022-08-19T11:18:34.550Z,11.52
2022-08-19T11:19:37.802Z,9.90
2022-08-19T11:20:40.681Z,9.98
2022-08-19T11:21:46.055Z,9.82
2022-08-19T11:22:54.623Z,8.88
2022-08-19T11:23:59.678Z,9.50
2022-08-19T11:25:03.504Z,8.00
2022-08-19T11:26:06.637Z,7.40
2022-08-19T11:27:12.656Z,6.65
2022-08-19T11:28:15.097Z,7.30
2022-08-19T11:29:20.797Z,6.22
2022-08-19T11:30:22.968Z,7.32
2022-08-19T11:31:31.647Z,6.75
2022-08-19T11:32:34.826Z,7.13
2022-08-19T11:33:38.619Z,7.70
2022-08-19T11:34:43.401Z,7.60
2022-08-19T11:35:46.131Z,7.90
2022-08-19T11:36:51.483Z,7.75
2022-08-19T11:37:54.794Z,7.30
2022-08-19T11:39:00.989Z,7.20
2022-08-19T11:40:04.580Z,8.32
2022-08-19T11:41:08.237Z,7.47
2022-08-19T11:42:30.346Z,7.93
2022-08-19T11:43:37.753Z,8.35
2022-08-19T11:44:40.103Z,9.25
2022-08-19T11:45:44.049Z,9.80
2022-08-19T11:46:47.731Z,9.35
2022-08-19T11:47:51.375Z,10.27
2022-08-19T11:48:55.354Z,9.55
2022-08-19T11:49:58.359Z,11.20
2022-08-19T11:51:07.041Z,10.73
2022-08-19T11:52:09.361Z,11.52
2022-08-19T11:53:12.721Z,9.93
2022-08-19T11:54:17.067Z,10.15
2022-08-19T11:55:23.500Z,9.60
2022-08-19T11:56:26.659Z,7.93
2022-08-19T11:57:31.798Z,8.50
2022-08-19T11:58:35.333Z,9.23
2022-08-19T11:59:38.645Z,7.25
2022-08-19T12:00:41.636Z,6.43
2022-08-19T12:01:47.303Z,6.35
2022-08-19T12:02:49.564Z,5.70
2022-08-19T12:03:54.921Z,5.45
2022-08-19T12:04:57.789Z,5.20
2022-08-19T12:06:01.454Z,5.53
2022-08-19T12:07:04.435Z,4.47
2022-08-19T12:08:08.474Z,4.60
2022-08-19T12:09:12.009Z,5.00
2022-08-19T12:10:18.961Z,4.40
2022-08-19T12:11:24.275Z,5.00
2022-08-19T12:12:27.966Z,4.32
2022-08-19T12:13:32.291Z,4.63
2022-08-19T12:14:36.353Z,3.97
2022-08-19T12:15:41.378Z,4.13
2022-08-19T12:16:49.226Z,5.05
2022-08-19T12:17:57.374Z,4.18
2022-08-19T12:19:04.602Z,4.95
2022-08-19T12:20:11.381Z,3.55
2022-08-19T12:21:14.993Z,3.90
2022-08-19T12:22:19.627Z,3.85
2022-08-19T12:23:26.187Z,3.00
2022-08-19T12:24:28.817Z,2.88
2022-08-19T12:25:32.925Z,3.05
2022-08-19T12:26:36.141Z,2.10
2022-08-19T12:27:57.922Z,2.75
2022-08-19T12:29:02.155Z,2.53
2022-08-19T12:30:09.971Z,2.25
2022-08-19T12:31:13.147Z,2.00
2022-08-19T12:32:18.040Z,1.83
2022-08-19T12:33:25.290Z,1.48
2022-08-19T12:34:32.385Z,1.50
2022-08-19T12:35:45.489Z,1.45
2022-08-19T12:36:50.644Z,1.80
2022-08-19T12:37:56.673Z,1.92
2022-08-19T12:39:01.159Z,1.50
2022-08-19T12:40:04.313Z,1.60
2022-08-19T12:41:09.472Z,1.50
2022-08-19T12:42:13.868Z,1.15
2022-08-19T12:43:22.825Z,1.50
2022-08-19T12:44:29.338Z,1.25
2022-08-19T12:45:35.106Z,1.20
2022-08-19T12:46:41.100Z,1.17
2022-08-19T12:47:47.659Z,1.50
2022-08-19T12:48:55.413Z,1.40
2022-08-19T12:50:06.971Z,1.33
2022-08-19T12:51:28.791Z,1.52
2022-08-19T12:52:55.102Z,1.40
2022-08-19T12:54:28.115Z,1.65
2022-08-19T12:56:22.299Z,1.48
2022-08-19T12:57:53.179Z,1.38
2022-08-19T12:59:18.434Z,1.35
2022-08-19T13:00:31.258Z,1.27
2022-08-19T13:01:52.291Z,1.20
2022-08-19T13:03:05.745Z,1.10
2022-08-19T13:04:24.232Z,1.70
2022-08-19T13:05:41.018Z,1.35
2022-08-19T13:06:49.923Z,1.20
2022-08-19T13:08:12.875Z,2.00
2022-08-19T13:09:24.170Z,1.10
2022-08-19T13:11:05.740Z,1.40
2022-08-19T13:12:14.179Z,1.25
2022-08-19T13:14:42.749Z,1.40
2022-08-19T13:15:47.091Z,1.20
2022-08-19T13:17:05.901Z,1.50
2022-08-19T13:18:21.390Z,1.60
2022-08-19T13:19:42.475Z,1.48
2022-08-19T13:20:59.583Z,1.60
2022-08-19T13:22:13.252Z,1.33
2022-08-19T13:23:20.282Z,1.58
2022-08-19T13:24:24.435Z,1.80
2022-08-19T13:25:42.542Z,1.90
2022-08-19T13:26:48.894Z,1.60
2022-08-19T13:27:59.666Z,2.20
2022-08-19T13:29:23.005Z,2.10
2022-08-19T13:30:44.145Z,2.28
2022-08-19T13:32:07.227Z,2.00
2022-08-19T13:33:19.477Z,1.98
2022-08-19T13:34:32.407Z,1.50
2022-08-19T13:35:44.202Z,1.90
2022-08-19T13:36:51.474Z,1.80
2022-08-19T13:38:12.214Z,1.60
2022-08-19T13:39:15.039Z,1.90
2022-08-19T13:40:24.796Z,1.77
2022-08-19T13:41:35.587Z,1.70
2022-08-19T13:42:37.918Z,1.50
2022-08-19T13:43:46.860Z,2.00
2022-08-19T13:44:54.972Z,1.80
2022-08-19T13:46:01.570Z,1.75
2022-08-19T13:47:17.377Z,1.30
2022-08-19T13:48:21.246Z,1.55
2022-08-19T13:49:30.791Z,1.80
2022-08-19T13:50:46.798Z,1.33
2022-08-19T13:51:53.187Z,1.73
2022-08-19T13:53:09.597Z,1.60
2022-08-19T13:54:13.633Z,1.60
2022-08-19T13:55:24.808Z,1.70
2022-08-19T13:56:31.151Z,1.63
2022-08-19T13:57:35.668Z,1.60
2022-08-19T13:58:42.332Z,1.70
2022-08-19T13:59:51.790Z,1.80
2022-08-19T14:00:58.370Z,1.95
2022-08-19T14:02:01.957Z,1.80
2022-08-19T14:03:09.511Z,1.83
2022-08-19T14:04:17.930Z,1.75
2022-08-19T14:05:23.104Z,2.10
2022-08-19T14:06:29.285Z,2.10
2022-08-19T14:07:37.118Z,2.13
2022-08-19T14:08:46.078Z,1.88
2022-08-19T14:09:49.297Z,2.30
2022-08-19T14:10:53.737Z,2.55
2022-08-19T14:11:56.627Z,2.00
2022-08-19T14:13:05.972Z,1.92
2022-08-19T14:14:11.310Z,2.30
2022-08-19T14:15:19.912Z,2.50
2022-08-19T14:16:28.159Z,2.05
2022-08-19T14:17:30.461Z,2.50
2022-08-19T14:18:35.021Z,2.10
2022-08-19T14:19:37.190Z,2.20
2022-08-19T14:20:44.515Z,2.15
2022-08-19T14:21:46.625Z,1.90
2022-08-19T14:22:50.443Z,2.10
2022-08-19T14:23:53.091Z,2.13
2022-08-19T14:24:56.205Z,2.10
2022-08-19T14:26:05.089Z,2.40
2022-08-19T14:27:08.437Z,2.13
2022-08-19T14:28:10.517Z,2.35
2022-08-19T14:29:13.671Z,2.40
2022-08-19T14:30:21.821Z,2.30
2022-08-19T14:31:29.072Z,2.50
2022-08-19T14:32:32.888Z,2.40
2022-08-19T14:33:37.493Z,2.83
2022-08-19T14:34:40.575Z,2.33
2022-08-19T14:35:46.000Z,2.50
2022-08-19T14:36:49.190Z,3.30
2022-08-19T14:37:54.831Z,3.00
2022-08-19T14:38:58.509Z,3.00
2022-08-19T14:40:00.637Z,2.90
2022-08-19T14:41:14.722Z,2.83
2022-08-19T14:42:16.862Z,2.83
2022-08-19T14:43:20.682Z,2.58
2022-08-19T14:44:23.609Z,2.42
2022-08-19T14:45:27.849Z,2.90
2022-08-19T14:46:30.217Z,2.90
2022-08-19T14:47:34.014Z,2.55
2022-08-19T14:48:41.376Z,3.30
2022-08-19T14:49:48.492Z,3.05
2022-08-19T14:50:52.854Z,3.00
2022-08-19T14:51:55.943Z,3.30
2022-08-19T14:53:09.119Z,3.15
2022-08-19T14:54:16.758Z,2.72
2022-08-19T14:55:19.599Z,3.00
2022-08-19T14:56:25.023Z,2.60
2022-08-19T14:57:27.270Z,3.03
2022-08-19T14:58:30.606Z,2.85
2022-08-19T14:59:32.778Z,3.10
2022-08-19T15:00:36.916Z,3.00
2022-08-19T15:01:39.076Z,2.40
2022-08-19T15:02:42.420Z,2.35
2022-08-19T15:03:45.905Z,2.45
2022-08-19T15:04:58.039Z,2.17
2022-08-19T15:06:02.253Z,2.47
2022-08-19T15:07:05.945Z,2.08
2022-08-19T15:08:08.094Z,2.30
2022-08-19T15:09:11.826Z,2.35
2022-08-19T15:10:16.086Z,2.70
2022-08-19T15:11:22.090Z,2.45
2022-08-19T15:12:24.943Z,2.63
2022-08-19T15:13:31.089Z,2.03
2022-08-19T15:14:35.660Z,2.40